Time;durP1;ratioP1;P1;durP2;ratioP2;P2;SDS_P1;SDS_P2;PMS_P1;PMS_P2;Temp;Humidity;BMP_temperature;BMP_pressure;BME280_temperature;BME280_humidity;BME280_pressure;Samples;Min_cycle;Max_cycle;Signal;HPM_P1;HPM_P2
2022/06/14 00:02:23;;;;;;;2.15;1.20;;;13.70;99.90;;;;;;21053213;28;20090;-58
2022/06/14 00:12:26;;;;;;;1.98;1.02;;;13.60;99.90;;;;;;21052685;28;20097;-58
2022/06/14 00:22:28;;;;;;;1.75;1.50;;;13.30;99.90;;;;;;21051180;28;20494;-57
2022/06/14 00:32:31;;;;;;;1.90;1.20;;;13.10;99.90;;;;;;21021977;28;20033;-57
2022/06/14 00:42:33;;;;;;;2.22;1.70;;;12.90;99.90;;;;;;20983612;28;20536;-58
2022/06/14 00:52:53;;;;;;;2.60;1.88;;;12.70;99.90;;;;;;20981824;28;20032;-58
2022/06/14 01:02:59;;;;;;;2.55;2.00;;;12.60;99.90;;;;;;20982076;28;20082;-58
2022/06/14 01:13:05;;;;;;;2.15;1.50;;;12.50;99.90;;;;;;20982380;28;20105;-57
2022/06/14 01:23:10;;;;;;;4.07;1.63;;;12.50;99.90;;;;;;20982399;28;20403;-58
2022/06/14 01:33:23;;;;;;;1.60;1.35;;;12.90;99.90;;;;;;21015553;28;20036;-57
2022/06/14 01:43:50;;;;;;;2.28;1.13;;;13.00;99.90;;;;;;21047626;28;20043;-58
2022/06/14 01:54:07;;;;;;;1.88;1.13;;;13.20;99.90;;;;;;21046921;28;20040;-58
2022/06/14 02:04:38;;;;;;;2.58;0.80;;;13.20;99.90;;;;;;21051667;28;20085;-58
2022/06/14 02:15:10;;;;;;;1.55;1.10;;;13.40;99.90;;;;;;21061431;28;20082;-58
2022/06/14 02:25:28;;;;;;;1.10;1.00;;;13.20;99.90;;;;;;21053074;28;20101;-58
2022/06/14 02:35:40;;;;;;;2.05;1.20;;;13.40;99.90;;;;;;21005971;28;20041;-58
2022/06/14 02:45:57;;;;;;;1.30;1.02;;;13.60;99.90;;;;;;20992804;28;20041;-57
2022/06/14 02:56:15;;;;;;;1.13;0.82;;;13.30;99.90;;;;;;20991765;28;20091;-47
2022/06/14 03:06:40;;;;;;;1.85;1.20;;;13.20;99.90;;;;;;20991204;28;20033;-58
2022/06/14 03:17:17;;;;;;;2.33;0.80;;;13.10;99.90;;;;;;20990008;28;20382;-58
2022/06/14 03:27:42;;;;;;;1.63;1.02;;;13.00;99.90;;;;;;20989652;28;20053;-58
2022/06/14 03:37:45;;;;;;;1.38;1.08;;;12.50;99.90;;;;;;21055594;28;20044;-58
2022/06/14 03:47:48;;;;;;;1.95;1.20;;;;;;;;;;21055305;28;20047;-58
2022/06/14 03:58:16;;;;;;;2.38;1.35;;;11.90;99.90;;;;;;21054341;28;20363;-50
2022/06/14 04:08:36;;;;;;;2.33;1.50;;;12.10;99.90;;;;;;21053590;28;20097;-57
2022/06/14 04:19:00;;;;;;;2.42;1.42;;;12.20;99.90;;;;;;21052888;28;20466;-57
2022/06/14 04:29:17;;;;;;;1.95;1.40;;;12.40;99.90;;;;;;20985075;28;20407;-57
2022/06/14 04:39:29;;;;;;;4.80;1.85;;;12.80;99.90;;;;;;20918360;28;20037;-57
2022/06/14 04:49:39;;;;;;;5.90;4.22;;;12.80;99.90;;;;;;20901027;28;20033;-58
2022/06/14 04:59:47;;;;;;;7.40;5.18;;;13.00;99.90;;;;;;20917640;28;20082;-58
2022/06/14 05:10:05;;;;;;;6.82;5.30;;;13.80;99.90;;;;;;20916893;28;20059;-58
2022/06/14 05:20:37;;;;;;;5.75;5.15;;;14.00;99.90;;;;;;20883424;28;20391;-56
2022/06/14 05:30:57;;;;;;;6.50;5.32;;;14.40;99.90;;;;;;20910775;28;20469;-58
2022/06/14 05:41:22;;;;;;;8.18;5.90;;;14.80;99.90;;;;;;20989778;28;20101;-58
2022/06/14 05:51:30;;;;;;;7.03;5.95;;;15.10;99.90;;;;;;20997398;28;20036;-58
2022/06/14 06:01:48;;;;;;;6.07;4.97;;;15.40;99.90;;;;;;20996631;28;20093;-59
2022/06/14 06:12:03;;;;;;;4.97;4.47;;;15.80;99.90;;;;;;20996072;28;20090;-55
2022/06/14 06:22:15;;;;;;;2.60;2.40;;;18.90;99.90;;;;;;20988164;28;20066;-60
2022/06/14 06:32:20;;;;;;;2.53;2.33;;;24.10;97.40;;;;;;21035092;28;20040;-60
2022/06/14 06:42:36;;;;;;;4.57;2.70;;;26.00;93.70;;;;;;20993535;28;20048;-61
2022/06/14 06:53:05;;;;;;;2.83;2.60;;;27.60;90.10;;;;;;20993153;28;20040;-61
2022/06/14 07:03:43;;;;;;;2.38;2.17;;;24.50;92.30;;;;;;20992164;28;20041;-57
2022/06/14 07:13:56;;;;;;;3.05;1.92;;;24.30;93.20;;;;;;20735586;28;20100;-56
2022/06/14 07:24:10;;;;;;;2.00;1.90;;;25.10;92.00;;;;;;20718092;28;20041;-62
2022/06/14 07:34:15;;;;;;;3.28;2.42;;;26.00;91.80;;;;;;20717811;28;20050;-58
2022/06/14 07:44:34;;;;;;;2.87;2.63;;;29.00;82.60;;;;;;20808956;28;20064;-61
2022/06/14 07:54:48;;;;;;;3.42;3.13;;;29.10;84.50;;;;;;21038373;28;20062;-62
2022/06/14 08:04:56;;;;;;;3.22;3.00;;;29.90;80.00;;;;;;21054968;28;20168;-63
2022/06/14 08:15:07;;;;;;;3.65;3.05;;;29.70;83.90;;;;;;21054693;28;20032;-62
2022/06/14 08:25:16;;;;;;;4.50;2.53;;;30.00;80.30;;;;;;21053551;28;20497;-61
2022/06/14 08:35:34;;;;;;;2.97;2.67;;;29.10;79.20;;;;;;21041884;28;20039;-60
2022/06/14 08:45:38;;;;;;;3.25;2.55;;;27.50;86.90;;;;;;21052132;28;20094;-61
2022/06/14 08:55:52;;;;;;;3.63;2.28;;;26.60;86.80;;;;;;21050291;28;20486;-60
2022/06/14 09:06:07;;;;;;;2.03;1.77;;;25.10;89.00;;;;;;21050697;28;20054;-63
2022/06/14 09:16:35;;;;;;;6.13;2.20;;;25.40;92.30;;;;;;21059997;28;20312;-62
2022/06/14 09:27:06;;;;;;;2.00;1.80;;;27.10;87.10;;;;;;21066328;28;20047;-63
2022/06/14 09:37:50;;;;;;;3.10;2.10;;;27.80;85.40;;;;;;20998732;28;20107;-63
2022/06/14 09:48:21;;;;;;;1.90;1.80;;;27.60;88.50;;;;;;20998772;28;20032;-61
2022/06/14 09:58:57;;;;;;;2.30;2.10;;;26.90;85.80;;;;;;20980577;28;20391;-56
2022/06/14 10:09:10;;;;;;;3.05;2.30;;;25.30;89.20;;;;;;20996697;28;20025;-62
2022/06/14 10:19:39;;;;;;;2.55;2.33;;;25.60;91.20;;;;;;20995808;28;20109;-62
2022/06/14 10:30:07;;;;;;;3.13;2.45;;;25.40;89.70;;;;;;20999467;28;20048;-63
2022/06/14 10:40:13;;;;;;;4.38;1.88;;;25.90;91.00;;;;;;21060870;28;20036;-63
2022/06/14 10:50:50;;;;;;;2.67;2.47;;;26.40;89.90;;;;;;21060151;28;20036;-62
2022/06/14 11:11:51;;;;;;;3.72;2.60;;;26.40;88.20;;;;;;21058289;28;20085;-62
2022/06/14 11:21:55;;;;;;;3.00;2.60;;;25.40;88.90;;;;;;21057593;28;20113;-61
2022/06/14 11:32:14;;;;;;;3.92;2.30;;;25.30;90.60;;;;;;21032563;28;20044;-61
2022/06/14 11:42:48;;;;;;;4.13;2.50;;;24.60;90.80;;;;;;20988132;28;20094;-60
2022/06/14 11:53:27;;;;;;;4.20;2.50;;;24.30;91.10;;;;;;20988086;28;20398;-61
2022/06/14 12:04:07;;;;;;;4.90;2.83;;;24.10;92.80;;;;;;20987050;28;20032;-55
2022/06/14 12:14:40;;;;;;;8.38;2.50;;;25.00;91.20;;;;;;20986379;28;20102;-60
2022/06/14 12:35:29;;;;;;;2.60;2.40;;;23.70;96.10;;;;;;20810746;28;20042;-61
2022/06/14 12:45:41;;;;;;;6.88;3.40;;;24.20;92.80;;;;;;20794225;28;20084;-62
2022/06/14 12:55:56;;;;;;;3.83;2.88;;;24.60;93.00;;;;;;20793662;28;20053;-63
2022/06/14 13:06:10;;;;;;;3.78;2.92;;;25.70;91.60;;;;;;20983665;28;20097;-63
2022/06/14 13:16:13;;;;;;;7.80;2.92;;;26.50;91.80;;;;;;21049474;28;20040;-62
2022/06/14 13:26:22;;;;;;;3.05;2.75;;;26.20;90.50;;;;;;21048909;28;20048;-62
2022/06/14 13:36:24;;;;;;;3.10;2.80;;;25.20;91.50;;;;;;20986708;28;20090;-57
2022/06/14 13:46:35;;;;;;;4.18;3.05;;;24.60;92.30;;;;;;20981690;28;20189;-60
2022/06/14 13:57:10;;;;;;;4.82;3.67;;;23.60;93.10;;;;;;20981090;28;20082;-63
2022/06/14 14:07:31;;;;;;;8.07;3.65;;;24.00;94.60;;;;;;20992729;28;20094;-61
2022/06/14 14:17:57;;;;;;;3.40;3.08;;;24.50;91.70;;;;;;20995776;28;20029;-61
2022/06/14 14:28:19;;;;;;;5.90;3.08;;;24.70;92.50;;;;;;20994853;28;20449;-61
2022/06/14 14:38:28;;;;;;;14.38;3.50;;;24.50;92.50;;;;;;21060850;28;20036;-60
2022/06/14 14:48:45;;;;;;;4.70;4.20;;;23.60;93.70;;;;;;21059872;28;20032;-61
2022/06/14 14:59:02;;;;;;;6.82;3.53;;;24.70;92.20;;;;;;21059276;28;20028;-62
2022/06/14 15:09:12;;;;;;;9.60;4.10;;;25.30;91.60;;;;;;21057361;28;20099;-60
2022/06/14 15:29:54;;;;;;;10.20;4.60;;;23.50;92.10;;;;;;20984346;28;20049;-60
2022/06/14 15:40:11;;;;;;;4.50;3.90;;;22.80;94.30;;;;;;20906555;28;20041;-59
2022/06/14 15:50:32;;;;;;;7.57;4.77;;;22.60;94.90;;;;;;20889546;28;20045;-60
2022/06/14 16:00:50;;;;;;;5.85;5.25;;;22.00;94.80;;;;;;20905096;28;20170;-59
2022/06/14 16:11:00;;;;;;;7.93;5.03;;;21.70;96.40;;;;;;20904558;28;20037;-59
2022/06/14 16:21:20;;;;;;;8.85;4.75;;;21.30;96.80;;;;;;20903915;28;20549;-58
2022/06/14 16:31:54;;;;;;;13.00;4.78;;;20.80;98.50;;;;;;20988096;28;20406;-59
2022/06/14 16:42:15;;;;;;;9.38;7.55;;;20.50;98.00;;;;;;21051546;28;20047;-59
2022/06/14 16:52:36;;;;;;;6.97;5.78;;;20.30;99.80;;;;;;21050942;28;20028;-59
2022/06/14 17:13:23;;;;;;;7.68;5.65;;;20.30;99.90;;;;;;21049748;28;20144;-60
2022/06/14 17:23:33;;;;;;;7.50;5.45;;;20.30;99.90;;;;;;21049202;28;20097;-59
2022/06/14 17:33:43;;;;;;;7.88;6.20;;;20.30;99.90;;;;;;21052938;28;20066;-59
2022/06/14 17:44:02;;;;;;;7.10;5.47;;;19.90;99.90;;;;;;21065528;28;20490;-59
2022/06/14 17:54:46;;;;;;;7.25;5.53;;;19.60;99.90;;;;;;21064212;28;20040;-59
2022/06/14 18:05:00;;;;;;;8.52;5.57;;;19.40;99.90;;;;;;21047238;28;20024;-59
2022/06/14 18:15:04;;;;;;;5.05;4.55;;;19.10;99.90;;;;;;21064118;28;20394;-57
2022/06/14 18:25:10;;;;;;;6.68;5.35;;;18.70;99.90;;;;;;21062529;28;20093;-58
2022/06/14 18:35:16;;;;;;;6.57;4.57;;;18.30;99.90;;;;;;21010657;28;20121;-58
2022/06/14 18:45:21;;;;;;;6.50;4.45;;;17.90;99.90;;;;;;20885878;28;20045;-58
2022/06/14 18:55:25;;;;;;;9.27;5.45;;;17.60;99.90;;;;;;20869874;28;20048;-59
2022/06/14 19:05:46;;;;;;;6.95;5.18;;;17.40;99.90;;;;;;20901038;28;20601;-58
2022/06/14 19:16:04;;;;;;;7.53;5.10;;;17.30;99.90;;;;;;20917328;28;20101;-58
2022/06/14 19:26:46;;;;;;;7.53;5.30;;;17.20;99.90;;;;;;20990706;28;20066;-53
2022/06/14 19:36:57;;;;;;;7.22;4.63;;;17.10;99.90;;;;;;21054914;28;20051;-58
2022/06/14 19:47:06;;;;;;;;;;;17.00;99.90;;;;;;21057101;28;20036;-58
2022/06/14 19:57:12;;;;;;;6.78;5.88;;;16.70;99.90;;;;;;21055644;28;19992;-58
2022/06/14 20:07:16;;;;;;;7.38;6.15;;;16.50;99.90;;;;;;21054324;28;20037;-58
2022/06/14 20:17:25;;;;;;;8.13;5.82;;;16.30;99.90;;;;;;21053429;28;20040;-58
2022/06/14 20:27:28;;;;;;;11.70;6.37;;;16.10;99.90;;;;;;21052537;28;20044;-58
2022/06/14 20:37:32;;;;;;;6.60;5.72;;;15.90;99.90;;;;;;20984517;28;20048;-58
2022/06/14 20:47:38;;;;;;;7.90;6.50;;;15.60;99.90;;;;;;20984364;28;20037;-58
2022/06/14 20:57:47;;;;;;;6.70;5.57;;;15.30;99.90;;;;;;20983978;28;20034;-58
2022/06/14 21:07:51;;;;;;;9.93;7.10;;;14.90;99.90;;;;;;20983537;28;20040;-56
2022/06/14 21:17:55;;;;;;;9.02;7.57;;;14.50;99.90;;;;;;20983338;28;20459;-58
2022/06/14 21:27:58;;;;;;;8.93;7.38;;;14.20;99.90;;;;;;20982757;28;20040;-50
2022/06/14 21:38:07;;;;;;;9.05;7.70;;;13.90;99.90;;;;;;21049995;28;20097;-58
2022/06/14 21:48:13;;;;;;;9.00;7.40;;;13.60;99.90;;;;;;21048785;28;20105;-58
2022/06/14 21:58:19;;;;;;;11.32;8.73;;;13.50;99.90;;;;;;21040927;28;20032;-58
2022/06/14 22:08:24;;;;;;;11.73;8.60;;;13.30;99.90;;;;;;21007904;28;20447;-58
2022/06/14 22:18:27;;;;;;;15.25;9.77;;;13.20;99.90;;;;;;21002493;28;20036;-52
2022/06/14 22:28:29;;;;;;;14.80;10.50;;;13.20;99.90;;;;;;21059370;28;20043;-57
2022/06/14 22:38:32;;;;;;;16.33;10.27;;;13.00;99.90;;;;;;21061029;28;20044;-48
2022/06/14 22:48:35;;;;;;;14.05;10.57;;;12.80;99.90;;;;;;21060522;28;20168;-57
2022/06/14 22:58:40;;;;;;;14.20;10.38;;;12.70;99.90;;;;;;21043177;28;20058;-50
2022/06/14 23:08:43;;;;;;;14.85;9.93;;;12.60;99.90;;;;;;21058840;28;20032;-49
2022/06/14 23:18:46;;;;;;;19.35;9.73;;;12.50;99.90;;;;;;21058289;28;20032;-57
2022/06/14 23:28:49;;;;;;;12.65;9.98;;;12.50;99.90;;;;;;21057049;28;20048;-57
2022/06/14 23:38:51;;;;;;;18.02;9.30;;;12.40;99.90;;;;;;20988510;28;20074;-52
2022/06/14 23:48:54;;;;;;;12.65;9.88;;;12.60;99.90;;;;;;20988793;28;20264;-58
2022/06/14 23:58:56;;;;;;;15.32;8.68;;;12.50;99.90;;;;;;20995877;28;20036;-58
